createdAt,value
2022-08-03T00:00:26.212Z,101394.66
2022-08-03T00:02:57.345Z,101389.75
2022-08-03T00:05:23.978Z,101388.41
2022-08-03T00:07:50.474Z,101384.72
2022-08-03T00:10:17.304Z,101385.28
2022-08-03T00:12:43.870Z,101384.94
2022-08-03T00:15:15.254Z,101382.75
2022-08-03T00:17:52.782Z,101380.41
2022-08-03T00:20:21.498Z,101383.69
2022-08-03T00:22:52.662Z,101387.84
2022-08-03T00:25:19.370Z,101389.28
2022-08-03T00:27:45.923Z,101386.91
2022-08-03T00:30:15.209Z,101385.00
2022-08-03T00:32:45.364Z,101388.59
2022-08-03T00:35:36.726Z,101389.44
2022-08-03T00:38:04.680Z,101389.44
2022-08-03T00:40:31.429Z,101395.78
2022-08-03T00:43:02.674Z,101395.97
2022-08-03T00:45:32.129Z,101391.69
2022-08-03T00:47:59.613Z,101393.09
2022-08-03T00:50:29.419Z,101383.53
2022-08-03T00:52:59.554Z,101384.06
2022-08-03T00:55:26.466Z,101386.69
2022-08-03T00:57:53.793Z,101379.56
2022-08-03T01:00:23.124Z,101378.41
2022-08-03T01:02:54.388Z,101384.09
2022-08-03T01:05:21.739Z,101386.66
2022-08-03T01:08:00.278Z,101376.03
2022-08-03T01:10:50.190Z,101374.88
2022-08-03T01:14:03.835Z,101379.03
2022-08-03T01:16:21.820Z,101377.84
2022-08-03T01:19:20.176Z,101369.31
2022-08-03T01:21:49.721Z,101370.69
2022-08-03T01:24:44.486Z,101369.53
2022-08-03T01:27:25.955Z,101362.84
2022-08-03T01:29:59.961Z,101369.75
2022-08-03T01:32:54.498Z,101363.75
2022-08-03T01:35:32.300Z,101365.84
2022-08-03T01:38:05.859Z,101364.13
2022-08-03T01:40:35.688Z,101372.72
2022-08-03T01:43:08.862Z,101367.75
2022-08-03T01:45:37.879Z,101361.13
2022-08-03T01:48:05.555Z,101371.75
2022-08-03T01:50:34.287Z,101365.78
2022-08-03T01:53:03.648Z,101364.06
2022-08-03T01:55:33.246Z,101363.22
2022-08-03T01:58:05.785Z,101364.44
2022-08-03T02:00:36.335Z,101361.03
2022-08-03T02:03:06.591Z,101356.06
2022-08-03T02:05:34.051Z,101352.16
2022-08-03T02:08:03.454Z,101355.94
2022-08-03T02:10:35.259Z,101348.94
2022-08-03T02:13:08.361Z,101354.75
2022-08-03T02:15:37.804Z,101350.31
2022-08-03T02:18:07.928Z,101355.97
2022-08-03T02:20:37.694Z,101354.25
2022-08-03T02:23:07.197Z,101347.44
2022-08-03T02:25:38.703Z,101348.47
2022-08-03T02:28:10.480Z,101347.75
2022-08-03T02:30:39.291Z,101349.81
2022-08-03T02:33:12.588Z,101346.56
2022-08-03T02:35:40.534Z,101349.47
2022-08-03T02:38:10.006Z,101337.69
2022-08-03T02:40:38.438Z,101342.97
2022-08-03T02:43:12.175Z,101344.88
2022-08-03T02:45:45.606Z,101336.47
2022-08-03T02:48:16.166Z,101334.59
2022-08-03T02:50:45.035Z,101335.63
2022-08-03T02:53:17.915Z,101337.69
2022-08-03T02:55:47.629Z,101336.16
2022-08-03T02:58:17.449Z,101337.19
2022-08-03T03:00:45.252Z,101334.63
2022-08-03T03:03:15.678Z,101332.22
2022-08-03T03:05:54.927Z,101335.81
2022-08-03T03:08:27.484Z,101332.22
2022-08-03T03:11:00.138Z,101324.19
2022-08-03T03:13:32.333Z,101328.13
2022-08-03T03:16:04.186Z,101330.88
2022-08-03T03:18:34.711Z,101329.66
2022-08-03T03:21:04.294Z,101335.81
2022-08-03T03:23:36.599Z,101337.53
2022-08-03T03:26:03.470Z,101341.97
2022-08-03T03:28:31.438Z,101340.09
2022-08-03T03:30:58.857Z,101333.75
2022-08-03T03:33:28.240Z,101336.50
2022-08-03T03:35:55.691Z,101333.59
2022-08-03T03:38:22.223Z,101332.06
2022-08-03T03:40:49.059Z,101334.13
2022-08-03T03:43:18.897Z,101326.94
2022-08-03T03:45:46.847Z,101329.00
2022-08-03T03:48:13.748Z,101339.09
2022-08-03T03:50:43.338Z,101332.59
2022-08-03T03:53:14.361Z,101332.59
2022-08-03T03:55:59.675Z,101334.63
2022-08-03T03:58:28.894Z,101345.09
2022-08-03T04:00:55.604Z,101339.09
2022-08-03T04:03:23.913Z,101340.31
2022-08-03T04:06:09.094Z,101338.06
2022-08-03T04:08:54.387Z,101335.16
2022-08-03T04:11:27.453Z,101335.00
2022-08-03T04:14:09.580Z,101334.31
2022-08-03T04:16:43.582Z,101337.72
2022-08-03T04:19:14.083Z,101340.28
2022-08-03T04:21:43.386Z,101336.53
2022-08-03T04:24:13.526Z,101337.38
2022-08-03T04:26:43.218Z,101330.88
2022-08-03T04:29:11.921Z,101337.88
2022-08-03T04:31:39.790Z,101330.53
2022-08-03T04:34:08.156Z,101340.44
2022-08-03T04:36:39.863Z,101340.44
2022-08-03T04:39:19.781Z,101349.50
2022-08-03T04:42:07.613Z,101338.72
2022-08-03T04:45:03.423Z,101345.41
2022-08-03T04:47:34.175Z,101347.13
2022-08-03T04:50:02.353Z,101340.44
2022-08-03T04:52:29.077Z,101345.91
2022-08-03T04:54:55.713Z,101339.09
2022-08-03T04:57:23.667Z,101348.31
2022-08-03T04:59:59.606Z,101343.72
2022-08-03T05:02:28.735Z,101348.84
2022-08-03T05:04:59.740Z,101360.28
2022-08-03T05:07:26.446Z,101356.16
2022-08-03T05:10:03.612Z,101362.31
2022-08-03T05:12:32.890Z,101351.03
2022-08-03T05:15:01.384Z,101356.81
2022-08-03T05:17:28.770Z,101363.00
2022-08-03T05:19:55.846Z,101359.91
2022-08-03T05:22:23.214Z,101368.63
2022-08-03T05:24:49.854Z,101357.50
2022-08-03T05:27:19.465Z,101372.06
2022-08-03T05:29:47.239Z,101370.84
2022-08-03T05:32:13.999Z,101368.78
2022-08-03T05:34:40.797Z,101370.31
2022-08-03T05:37:07.432Z,101371.66
2022-08-03T05:39:35.281Z,101369.59
2022-08-03T05:42:02.466Z,101377.13
2022-08-03T05:44:29.391Z,101374.03
2022-08-03T05:46:57.656Z,101383.44
2022-08-03T05:49:24.271Z,101382.91
2022-08-03T05:52:00.268Z,101387.84
2022-08-03T05:54:56.211Z,101379.94
2022-08-03T05:57:25.333Z,101384.03
2022-08-03T05:59:58.431Z,101384.16
2022-08-03T06:02:26.775Z,101387.72
2022-08-03T06:04:57.751Z,101383.75
2022-08-03T06:07:24.424Z,101380.75
2022-08-03T06:10:35.857Z,101381.41
2022-08-03T06:12:38.914Z,101390.56
2022-08-03T06:15:05.994Z,101389.94
2022-08-03T06:17:37.374Z,101393.94
2022-08-03T06:20:05.687Z,101389.75
2022-08-03T06:22:32.251Z,101388.94
2022-08-03T06:25:04.850Z,101391.72
2022-08-03T06:27:36.733Z,101389.19
2022-08-03T06:30:05.355Z,101386.63
2022-08-03T06:32:32.025Z,101381.53
2022-08-03T06:34:58.754Z,101388.06
2022-08-03T06:37:27.011Z,101391.00
2022-08-03T06:39:54.174Z,101388.22
2022-08-03T06:42:20.724Z,101396.25
2022-08-03T06:44:53.666Z,101391.59
2022-08-03T06:47:20.243Z,101392.84
2022-08-03T06:50:13.031Z,101398.97
2022-08-03T06:52:37.682Z,101401.63
2022-08-03T06:55:07.164Z,101405.19
2022-08-03T06:57:33.751Z,101398.94
2022-08-03T07:00:06.353Z,101397.31
2022-08-03T07:02:38.721Z,101400.44
2022-08-03T07:05:10.581Z,101399.09
2022-08-03T07:07:37.949Z,101404.28
2022-08-03T07:10:05.533Z,101393.06
2022-08-03T07:12:33.897Z,101396.94
2022-08-03T07:15:04.685Z,101401.69
2022-08-03T07:17:33.586Z,101400.72
2022-08-03T07:20:01.534Z,101407.53
2022-08-03T07:22:29.433Z,101410.94
2022-08-03T07:24:57.615Z,101411.81
2022-08-03T07:27:27.095Z,101413.72
2022-08-03T07:29:54.207Z,101418.84
2022-08-03T07:32:21.067Z,101417.38
2022-08-03T07:34:48.583Z,101409.31
2022-08-03T07:37:15.614Z,101414.25
2022-08-03T07:39:42.370Z,101414.69
2022-08-03T07:42:09.050Z,101413.63
2022-08-03T07:44:36.584Z,101411.28
2022-08-03T07:47:03.283Z,101407.44
2022-08-03T07:49:30.569Z,101409.97
2022-08-03T07:52:16.479Z,101407.84
2022-08-03T07:54:43.628Z,101415.69
2022-08-03T07:57:10.390Z,101404.97
2022-08-03T08:00:01.897Z,101416.03
2022-08-03T08:02:26.311Z,101410.91
2022-08-03T08:04:52.894Z,101402.13
2022-08-03T08:07:22.659Z,101400.59
2022-08-03T08:09:49.211Z,101403.13
2022-08-03T08:12:16.388Z,101402.88
2022-08-03T08:14:48.096Z,101406.63
2022-08-03T08:17:14.976Z,101396.59
2022-08-03T08:19:50.506Z,101407.41
2022-08-03T08:22:23.473Z,101397.97
2022-08-03T08:25:01.115Z,101398.94
2022-08-03T08:27:28.067Z,101406.75
2022-08-03T08:30:19.348Z,101402.03
2022-08-03T08:32:53.467Z,101405.34
2022-08-03T08:35:20.309Z,101404.41
2022-08-03T08:37:51.101Z,101404.13
2022-08-03T08:40:21.921Z,101401.06
2022-08-03T08:43:00.174Z,101400.50
2022-08-03T08:45:27.606Z,101401.75
2022-08-03T08:47:59.735Z,101399.22
2022-08-03T08:50:28.730Z,101395.75
2022-08-03T08:53:02.616Z,101399.44
2022-08-03T08:55:30.066Z,101403.19
2022-08-03T08:58:20.912Z,101403.97
2022-08-03T09:00:48.521Z,101396.16
2022-08-03T09:03:29.366Z,101399.84
2022-08-03T09:05:59.933Z,101401.84
2022-08-03T09:08:26.886Z,101403.47
2022-08-03T09:10:53.426Z,101399.03
2022-08-03T09:13:25.035Z,101403.41
2022-08-03T09:16:13.988Z,101402.88
2022-08-03T09:18:42.805Z,101397.81
2022-08-03T09:21:34.160Z,101402.28
2022-08-03T09:24:07.056Z,101396.00
2022-08-03T09:26:36.893Z,101401.00
2022-08-03T09:29:13.191Z,101397.78
2022-08-03T09:31:43.704Z,101392.69
2022-08-03T09:34:15.312Z,101395.72
2022-08-03T09:36:44.895Z,101390.91
2022-08-03T09:39:19.518Z,101392.97
2022-08-03T09:42:09.193Z,101392.75
2022-08-03T09:44:45.282Z,101395.97
2022-08-03T09:47:14.219Z,101393.81
2022-08-03T09:49:43.341Z,101392.66
2022-08-03T09:52:33.608Z,101394.09
2022-08-03T09:55:23.796Z,101392.63
2022-08-03T09:58:11.649Z,101389.69
2022-08-03T10:01:01.796Z,101393.91
2022-08-03T10:03:36.588Z,101392.06
2022-08-03T10:06:23.162Z,101404.19
2022-08-03T10:09:24.850Z,101388.44
2022-08-03T10:11:51.667Z,101388.38
2022-08-03T10:14:23.613Z,101389.69
2022-08-03T10:16:50.191Z,101393.16
2022-08-03T10:19:16.847Z,101384.16
2022-08-03T10:21:50.759Z,101386.13
2022-08-03T10:24:25.225Z,101378.84
2022-08-03T10:26:53.543Z,101388.25
2022-08-03T10:29:27.344Z,101382.84
2022-08-03T10:31:58.754Z,101376.59
2022-08-03T10:34:31.932Z,101376.72
2022-08-03T10:37:00.419Z,101377.97
2022-08-03T10:39:30.714Z,101368.72
2022-08-03T10:42:00.065Z,101369.63
2022-08-03T10:44:39.856Z,101369.91
2022-08-03T10:47:10.449Z,101364.47
2022-08-03T10:49:37.968Z,101366.56
2022-08-03T10:52:13.233Z,101371.19
2022-08-03T10:55:12.083Z,101361.38
2022-08-03T10:57:58.339Z,101351.06
2022-08-03T11:00:27.930Z,101358.09
2022-08-03T11:03:17.622Z,101345.00
2022-08-03T11:05:54.363Z,101351.28
2022-08-03T11:08:29.442Z,101346.09
2022-08-03T11:11:23.653Z,101347.59
2022-08-03T11:13:57.202Z,101334.63
2022-08-03T11:16:26.350Z,101345.25
2022-08-03T11:18:59.997Z,101332.41
2022-08-03T11:21:48.241Z,101326.56
2022-08-03T11:24:36.895Z,101335.00
2022-08-03T11:27:19.227Z,101327.56
2022-08-03T11:30:01.876Z,101322.91
2022-08-03T11:32:37.221Z,101328.06
2022-08-03T11:35:24.777Z,101334.34
2022-08-03T11:38:03.353Z,101333.06
2022-08-03T11:40:49.427Z,101339.56
2022-08-03T11:43:31.269Z,101331.25
2022-08-03T11:46:04.054Z,101331.88
2022-08-03T11:48:45.001Z,101332.44
2022-08-03T11:51:25.878Z,101341.41
2022-08-03T11:53:58.637Z,101337.84
2022-08-03T11:56:26.023Z,101338.69
2022-08-03T11:59:19.290Z,101337.50
2022-08-03T12:01:42.047Z,101337.84
2022-08-03T12:04:10.759Z,101333.38
2022-08-03T12:06:55.615Z,101335.94
2022-08-03T12:09:22.433Z,101340.22
2022-08-03T12:11:59.699Z,101336.06
2022-08-03T12:14:52.983Z,101333.81
2022-08-03T12:17:20.708Z,101336.66
2022-08-03T12:19:47.416Z,101331.03
2022-08-03T12:22:14.554Z,101336.34
2022-08-03T12:24:43.686Z,101338.34
2022-08-03T12:27:10.400Z,101337.28
2022-08-03T12:29:37.121Z,101343.28
2022-08-03T12:32:04.038Z,101338.59
2022-08-03T12:34:49.826Z,101339.19
2022-08-03T12:37:23.517Z,101340.34
2022-08-03T12:40:01.606Z,101339.78
2022-08-03T12:42:36.337Z,101335.84
2022-08-03T12:45:25.579Z,101327.72
2022-08-03T12:47:57.802Z,101325.19
2022-08-03T12:50:31.424Z,101328.56
2022-08-03T12:53:04.515Z,101327.16
2022-08-03T12:55:57.937Z,101332.75
2022-08-03T12:58:35.936Z,101329.69
2022-08-03T13:01:09.479Z,101329.97
2022-08-03T13:03:50.415Z,101328.06
2022-08-03T13:06:24.206Z,101327.84
2022-08-03T13:09:03.188Z,101330.38
2022-08-03T13:11:55.693Z,101315.81
2022-08-03T13:14:19.670Z,101319.75
2022-08-03T13:16:47.344Z,101316.38
2022-08-03T13:19:15.717Z,101308.81
2022-08-03T13:22:01.931Z,101308.81
2022-08-03T13:24:32.336Z,101309.38
2022-08-03T13:27:00.046Z,101313.88
2022-08-03T13:29:26.659Z,101313.59
2022-08-03T13:31:53.278Z,101309.97
2022-08-03T13:34:23.790Z,101307.44
2022-08-03T13:37:09.243Z,101304.66
2022-08-03T13:39:57.681Z,101306.09
2022-08-03T13:42:23.285Z,101309.19
2022-08-03T13:44:49.861Z,101304.72
2022-08-03T13:47:16.866Z,101310.88
2022-08-03T13:49:59.435Z,101307.78
2022-08-03T13:52:28.073Z,101309.75
2022-08-03T13:54:54.915Z,101307.78
2022-08-03T13:58:18.986Z,101298.50
2022-08-03T14:00:08.706Z,101307.44
2022-08-03T14:02:35.352Z,101301.84
2022-08-03T14:05:06.267Z,101301.28
2022-08-03T14:07:32.851Z,101299.06
2022-08-03T14:09:59.538Z,101296.00
2022-08-03T14:12:26.040Z,101299.38
2022-08-03T14:14:53.988Z,101290.69
2022-08-03T14:17:23.270Z,101291.25
2022-08-03T14:19:52.715Z,101287.03
2022-08-03T14:22:21.465Z,101287.59
2022-08-03T14:24:49.338Z,101289.00
2022-08-03T14:27:20.483Z,101282.84
2022-08-03T14:29:47.218Z,101278.34
2022-08-03T14:32:13.798Z,101275.53
2022-08-03T14:34:44.811Z,101272.41
2022-08-03T14:37:11.374Z,101262.06
2022-08-03T14:42:25.269Z,101267.94
2022-08-03T14:44:56.100Z,101260.06
2022-08-03T14:47:25.484Z,101250.25
2022-08-03T14:50:36.977Z,101251.94
2022-08-03T14:52:41.557Z,101247.44
2022-08-03T14:55:09.721Z,101250.53
2022-08-03T14:57:36.286Z,101253.63
2022-08-03T15:00:04.203Z,101246.03
2022-08-03T15:02:30.893Z,101239.59
2022-08-03T15:04:57.495Z,101244.66
2022-08-03T15:07:24.114Z,101238.50
2022-08-03T15:09:50.705Z,101233.44
2022-08-03T15:12:17.299Z,101239.03
2022-08-03T15:14:45.168Z,101230.06
2022-08-03T15:17:11.841Z,101231.19
2022-08-03T15:20:01.030Z,101224.75
2022-08-03T15:22:34.692Z,101222.50
2022-08-03T15:26:02.357Z,101233.44
2022-08-03T15:28:03.379Z,101224.19
2022-08-03T15:30:31.393Z,101224.19
2022-08-03T15:32:59.182Z,101225.03
2022-08-03T15:35:25.918Z,101224.75
2022-08-03T15:37:52.482Z,101218.88
2022-08-03T15:40:19.122Z,101227.28
2022-08-03T15:42:45.737Z,101220.56
2022-08-03T15:45:12.750Z,101217.19
2022-08-03T15:47:39.541Z,101216.34
2022-08-03T15:50:09.644Z,101219.72
2022-08-03T15:52:36.489Z,101213.28
2022-08-03T15:55:08.442Z,101214.09
2022-08-03T15:59:03.130Z,101208.13
2022-08-03T16:00:33.441Z,101208.41
2022-08-03T16:03:05.527Z,101201.38
2022-08-03T16:05:32.300Z,101202.22
2022-08-03T16:08:02.641Z,101206.69
2022-08-03T16:10:30.595Z,101201.34
2022-08-03T16:13:02.321Z,101201.84
2022-08-03T16:15:28.946Z,101197.63
2022-08-03T16:17:55.579Z,101195.09
2022-08-03T16:20:31.726Z,101202.88
2022-08-03T16:23:11.204Z,101198.66
2022-08-03T16:25:42.017Z,101184.31
2022-08-03T16:28:13.808Z,101197.16
2022-08-03T16:30:45.734Z,101189.78
2022-08-03T16:33:17.854Z,101192.50
2022-08-03T16:35:46.466Z,101191.09
2022-08-03T16:38:18.590Z,101191.94
2022-08-03T16:40:47.008Z,101187.75
2022-08-03T16:43:18.799Z,101184.66
2022-08-03T16:45:46.518Z,101184.38
2022-08-03T16:48:16.483Z,101178.47
2022-08-03T16:50:44.185Z,101180.41
2022-08-03T16:53:16.906Z,101178.94
2022-08-03T16:55:51.936Z,101188.94
2022-08-03T16:58:34.459Z,101187.81
2022-08-03T17:01:22.230Z,101180.75
2022-08-03T17:04:03.014Z,101179.28
2022-08-03T17:06:34.408Z,101180.66
2022-08-03T17:09:03.384Z,101175.91
2022-08-03T17:11:32.906Z,101173.06
2022-08-03T17:14:09.169Z,101175.81
2022-08-03T17:16:38.334Z,101172.44
2022-08-03T17:19:06.881Z,101173.81
2022-08-03T17:21:39.059Z,101173.50
2022-08-03T17:24:12.112Z,101180.75
2022-08-03T17:26:46.777Z,101183.22
2022-08-03T17:29:23.130Z,101173.91
2022-08-03T17:31:52.523Z,101177.78
2022-08-03T17:34:26.635Z,101173.81
2022-08-03T17:37:04.756Z,101177.41
2022-08-03T17:39:57.217Z,101175.16
2022-08-03T17:42:30.829Z,101170.63
2022-08-03T17:45:02.434Z,101177.00
2022-08-03T17:47:42.902Z,101182.25
2022-08-03T17:50:25.788Z,101180.81
2022-08-03T17:53:24.513Z,101179.31
2022-08-03T17:56:38.689Z,101180.59
2022-08-03T17:59:50.838Z,101173.84
2022-08-03T18:02:50.411Z,101174.91
2022-08-03T18:05:21.935Z,101180.44
2022-08-03T18:10:49.855Z,101182.75
2022-08-03T18:13:24.234Z,101175.69
2022-08-03T18:16:01.211Z,101168.63
2022-08-03T18:18:37.855Z,101169.38
2022-08-03T18:21:09.399Z,101173.19
2022-08-03T18:23:50.129Z,101174.97
2022-08-03T18:26:19.008Z,101174.81
2022-08-03T18:28:48.351Z,101172.13
2022-08-03T18:31:33.055Z,101171.94
2022-08-03T18:34:17.132Z,101168.50
2022-08-03T18:36:55.984Z,101181.16
2022-08-03T18:39:22.723Z,101174.91
2022-08-03T18:41:49.286Z,101178.97
2022-08-03T18:44:46.459Z,101174.63
2022-08-03T18:47:18.273Z,101171.69
2022-08-03T18:50:09.542Z,101163.97
2022-08-03T18:53:02.691Z,101165.47
2022-08-03T18:56:01.392Z,101171.19
2022-08-03T18:58:39.050Z,101172.44
2022-08-03T19:01:56.450Z,101173.44
2022-08-03T19:04:20.946Z,101171.28
2022-08-03T19:07:07.917Z,101173.09
2022-08-03T19:10:03.789Z,101176.50
2022-08-03T19:12:44.622Z,101183.03
2022-08-03T19:15:15.705Z,101177.28
2022-08-03T19:17:50.125Z,101183.22
2022-08-03T19:20:22.290Z,101184.09
2022-08-03T19:22:55.749Z,101185.53
2022-08-03T19:25:34.281Z,101190.59
2022-08-03T19:28:03.642Z,101189.03
2022-08-03T19:30:38.926Z,101191.09
2022-08-03T19:33:11.083Z,101189.50
2022-08-03T19:35:51.595Z,101193.25
2022-08-03T19:38:28.168Z,101190.81
2022-08-03T19:41:02.560Z,101195.00
2022-08-03T19:44:02.258Z,101202.84
2022-08-03T19:46:37.234Z,101198.72
2022-08-03T19:49:15.075Z,101198.22
2022-08-03T19:51:58.920Z,101201.59
2022-08-03T19:54:53.883Z,101199.59
2022-08-03T19:57:24.783Z,101206.94
2022-08-03T19:59:53.402Z,101203.75
2022-08-03T20:02:26.526Z,101207.63
2022-08-03T20:04:59.933Z,101207.84
2022-08-03T20:07:28.899Z,101209.78
2022-08-03T20:09:57.113Z,101209.16
2022-08-03T20:12:27.653Z,101203.00
2022-08-03T20:14:58.966Z,101204.31
2022-08-03T20:17:54.468Z,101202.03
2022-08-03T20:20:20.343Z,101205.13
2022-08-03T20:22:53.986Z,101202.06
2022-08-03T20:25:38.217Z,101201.31
2022-08-03T20:28:13.955Z,101200.94
2022-08-03T20:30:46.327Z,101201.41
2022-08-03T20:33:19.531Z,101205.47
2022-08-03T20:35:54.763Z,101204.03
2022-08-03T20:38:27.285Z,101206.19
2022-08-03T20:40:54.560Z,101204.91
2022-08-03T20:43:23.205Z,101207.53
2022-08-03T20:46:00.028Z,101204.38
2022-08-03T20:48:37.341Z,101201.19
2022-08-03T20:51:05.342Z,101205.75
2022-08-03T20:53:59.549Z,101199.19
2022-08-03T20:56:40.063Z,101200.34
2022-08-03T20:59:19.889Z,101208.97
2022-08-03T21:01:47.039Z,101204.34
2022-08-03T21:04:14.899Z,101206.94
2022-08-03T21:06:55.979Z,101202.72
2022-08-03T21:09:33.490Z,101203.13
2022-08-03T21:12:11.768Z,101199.13
2022-08-03T21:13:05.313Z,101177.84
2022-08-03T21:14:43.776Z,101198.97
2022-08-03T21:17:25.152Z,101198.81
2022-08-03T21:20:00.885Z,101190.34
2022-08-03T21:22:32.227Z,101191.00
2022-08-03T21:25:03.939Z,101186.34
2022-08-03T21:27:31.851Z,101189.19
2022-08-03T21:30:04.326Z,101176.25
2022-08-03T21:32:33.285Z,101182.91
2022-08-03T21:35:05.305Z,101181.25
2022-08-03T21:37:31.829Z,101183.22
2022-08-03T21:39:58.442Z,101182.19
2022-08-03T21:42:25.133Z,101179.03
2022-08-03T21:44:53.768Z,101167.56
2022-08-03T21:47:24.449Z,101175.69
2022-08-03T21:50:07.874Z,101174.88
2022-08-03T21:52:43.376Z,101172.38
2022-08-03T21:55:18.683Z,101174.13
2022-08-03T21:57:51.958Z,101166.09
2022-08-03T22:00:20.934Z,101170.81
2022-08-03T22:02:58.385Z,101166.81
2022-08-03T22:05:42.662Z,101167.28
2022-08-03T22:08:13.419Z,101163.91
2022-08-03T22:10:40.835Z,101162.88
2022-08-03T22:13:14.055Z,101156.53
2022-08-03T22:15:41.509Z,101157.78
2022-08-03T22:18:08.425Z,101160.94
2022-08-03T22:20:35.424Z,101160.31
2022-08-03T22:23:06.303Z,101162.66
2022-08-03T22:25:35.632Z,101162.03
2022-08-03T22:28:08.595Z,101161.41
2022-08-03T22:30:35.651Z,101153.56
2022-08-03T22:33:11.021Z,101158.44
2022-08-03T22:35:44.380Z,101155.69
2022-08-03T22:38:15.120Z,101160.13
2022-08-03T22:40:41.772Z,101161.19
2022-08-03T22:43:09.845Z,101161.41
2022-08-03T22:46:07.332Z,101159.94
2022-08-03T22:48:26.059Z,101162.69
2022-08-03T22:50:52.639Z,101154.84
2022-08-03T22:53:22.020Z,101148.06
2022-08-03T22:55:49.595Z,101150.81
2022-08-03T22:58:16.908Z,101141.50
2022-08-03T23:00:56.264Z,101143.41
2022-08-03T23:04:00.479Z,101141.94
2022-08-03T23:06:21.521Z,101143.22
2022-08-03T23:08:50.261Z,101139.41
2022-08-03T23:11:18.612Z,101137.28
2022-08-03T23:13:53.624Z,101140.47
2022-08-03T23:16:29.330Z,101146.41
2022-08-03T23:18:59.593Z,101140.69
2022-08-03T23:21:59.697Z,101141.94
2022-08-03T23:24:29.825Z,101144.06
2022-08-03T23:26:58.227Z,101140.66
2022-08-03T23:29:29.079Z,101140.88
2022-08-03T23:31:56.369Z,101140.03
2022-08-03T23:34:42.229Z,101134.72
2022-08-03T23:37:09.419Z,101132.34
2022-08-03T23:39:36.949Z,101138.94
2022-08-03T23:42:05.951Z,101136.38
2022-08-03T23:44:34.737Z,101134.06
2022-08-03T23:47:01.371Z,101142.53
2022-08-03T23:49:27.888Z,101136.19
2022-08-03T23:52:43.877Z,101137.44
2022-08-03T23:55:29.991Z,101132.78
2022-08-03T23:58:19.517Z,101133.00
